Aviation Digital Data Service (ADDS)

Output produced by METARs form (0915 UTC 19 November 2018)
found at http://www.aviationweather.gov/metar/data/
 
RJSN 190900Z 33011KT 9999 FEW030 BKN070 13/02 Q1017
TAF RJSN 190505Z 1906/2012 32020KT 9999 FEW020 BKN040 
     BECMG 2000/2003 32008KT 
     BECMG 2003/2006 25012KT